sensor_id;sensor_type;location;lat;lon;timestamp;temperature;humidity
21712;DHT22;11017;53.552;9.910;2022-11-25T00:01:47;4.90;99.90
21712;DHT22;11017;53.552;9.910;2022-11-25T00:04:15;4.80;99.90
21712;DHT22;11017;53.552;9.910;2022-11-25T00:06:42;4.80;99.90
21712;DHT22;11017;53.552;9.910;2022-11-25T00:09:10;4.70;99.90
21712;DHT22;11017;53.552;9.910;2022-11-25T00:11:40;4.70;99.90
21712;DHT22;11017;53.552;9.910;2022-11-25T00:14:09;4.60;99.90
21712;DHT22;11017;53.552;9.910;2022-11-25T00:16:38;4.60;99.90
21712;DHT22;11017;53.552;9.910;2022-11-25T00:19:05;4.60;99.90
21712;DHT22;11017;53.552;9.910;2022-11-25T00:21:33;4.60;99.90
21712;DHT22;11017;53.552;9.910;2022-11-25T00:24:01;4.60;99.90
21712;DHT22;11017;53.552;9.910;2022-11-25T00:26:30;4.50;99.90
21712;DHT22;11017;53.552;9.910;2022-11-25T00:29:00;4.50;99.90
21712;DHT22;11017;53.552;9.910;2022-11-25T00:31:30;4.50;99.90
21712;DHT22;11017;53.552;9.910;2022-11-25T00:33:57;4.40;99.90
21712;DHT22;11017;53.552;9.910;2022-11-25T00:36:26;4.40;99.90
21712;DHT22;11017;53.552;9.910;2022-11-25T00:38:55;4.40;99.90
21712;DHT22;11017;53.552;9.910;2022-11-25T00:41:23;4.40;99.90
21712;DHT22;11017;53.552;9.910;2022-11-25T00:44:10;4.40;99.90
21712;DHT22;11017;53.552;9.910;2022-11-25T00:46:54;4.40;99.90
21712;DHT22;11017;53.552;9.910;2022-11-25T00:49:21;4.60;99.90
21712;DHT22;11017;53.552;9.910;2022-11-25T00:51:48;4.50;99.90
21712;DHT22;11017;53.552;9.910;2022-11-25T00:54:15;4.60;99.90
21712;DHT22;11017;53.552;9.910;2022-11-25T00:56:42;4.60;99.90
21712;DHT22;11017;53.552;9.910;2022-11-25T00:59:10;4.50;99.90
21712;DHT22;11017;53.552;9.910;2022-11-25T01:01:38;4.50;99.90
21712;DHT22;11017;53.552;9.910;2022-11-25T01:04:06;4.40;99.90
21712;DHT22;11017;53.552;9.910;2022-11-25T01:06:34;4.40;99.90
21712;DHT22;11017;53.552;9.910;2022-11-25T01:09:02;4.60;99.90
21712;DHT22;11017;53.552;9.910;2022-11-25T01:11:29;4.20;99.90
21712;DHT22;11017;53.552;9.910;2022-11-25T01:13:57;4.30;99.90
21712;DHT22;11017;53.552;9.910;2022-11-25T01:16:25;4.30;99.90
21712;DHT22;11017;53.552;9.910;2022-11-25T01:18:52;4.30;99.90
21712;DHT22;11017;53.552;9.910;2022-11-25T01:21:20;4.30;99.90
21712;DHT22;11017;53.552;9.910;2022-11-25T01:23:48;4.30;99.90
21712;DHT22;11017;53.552;9.910;2022-11-25T01:26:17;4.40;99.90
21712;DHT22;11017;53.552;9.910;2022-11-25T01:28:45;4.40;99.90
21712;DHT22;11017;53.552;9.910;2022-11-25T01:31:14;4.40;99.90
21712;DHT22;11017;53.552;9.910;2022-11-25T01:33:43;4.50;99.90
21712;DHT22;11017;53.552;9.910;2022-11-25T01:36:12;4.50;99.90
21712;DHT22;11017;53.552;9.910;2022-11-25T01:38:40;4.40;99.90
21712;DHT22;11017;53.552;9.910;2022-11-25T01:41:09;4.30;99.90
21712;DHT22;11017;53.552;9.910;2022-11-25T01:43:36;4.30;99.90
21712;DHT22;11017;53.552;9.910;2022-11-25T01:46:08;4.30;99.90
21712;DHT22;11017;53.552;9.910;2022-11-25T01:48:40;4.30;99.90
21712;DHT22;11017;53.552;9.910;2022-11-25T01:51:16;4.40;99.90
21712;DHT22;11017;53.552;9.910;2022-11-25T01:53:44;4.30;99.90
21712;DHT22;11017;53.552;9.910;2022-11-25T01:56:11;4.30;99.90
21712;DHT22;11017;53.552;9.910;2022-11-25T01:58:39;4.30;99.90
21712;DHT22;11017;53.552;9.910;2022-11-25T02:01:06;4.40;99.90
21712;DHT22;11017;53.552;9.910;2022-11-25T02:03:36;4.40;99.90
21712;DHT22;11017;53.552;9.910;2022-11-25T02:06:10;4.30;99.90
21712;DHT22;11017;53.552;9.910;2022-11-25T02:08:41;4.40;99.90
21712;DHT22;11017;53.552;9.910;2022-11-25T02:11:09;4.30;99.90
21712;DHT22;11017;53.552;9.910;2022-11-25T02:13:37;4.40;99.90
21712;DHT22;11017;53.552;9.910;2022-11-25T02:16:04;4.50;99.90
21712;DHT22;11017;53.552;9.910;2022-11-25T02:18:31;4.40;99.90
21712;DHT22;11017;53.552;9.910;2022-11-25T02:20:58;4.50;99.90
21712;DHT22;11017;53.552;9.910;2022-11-25T02:23:29;4.40;99.90
21712;DHT22;11017;53.552;9.910;2022-11-25T02:26:00;4.40;99.90
21712;DHT22;11017;53.552;9.910;2022-11-25T02:28:29;4.30;99.90
21712;DHT22;11017;53.552;9.910;2022-11-25T02:30:57;4.30;99.90
21712;DHT22;11017;53.552;9.910;2022-11-25T02:33:25;4.30;99.90
21712;DHT22;11017;53.552;9.910;2022-11-25T02:35:53;4.30;99.90
21712;DHT22;11017;53.552;9.910;2022-11-25T02:38:23;4.40;99.90
21712;DHT22;11017;53.552;9.910;2022-11-25T02:40:54;4.30;99.90
21712;DHT22;11017;53.552;9.910;2022-11-25T02:43:23;4.30;99.90
21712;DHT22;11017;53.552;9.910;2022-11-25T02:45:55;4.40;99.90
21712;DHT22;11017;53.552;9.910;2022-11-25T02:48:24;4.40;99.90
21712;DHT22;11017;53.552;9.910;2022-11-25T02:50:51;4.40;99.90
21712;DHT22;11017;53.552;9.910;2022-11-25T02:53:19;4.50;99.90
21712;DHT22;11017;53.552;9.910;2022-11-25T02:55:46;4.50;99.90
21712;DHT22;11017;53.552;9.910;2022-11-25T02:58:13;4.40;99.90
21712;DHT22;11017;53.552;9.910;2022-11-25T03:00:42;4.40;99.90
21712;DHT22;11017;53.552;9.910;2022-11-25T03:03:09;4.30;99.90
21712;DHT22;11017;53.552;9.910;2022-11-25T03:05:36;4.30;99.90
21712;DHT22;11017;53.552;9.910;2022-11-25T03:08:04;4.30;99.90
21712;DHT22;11017;53.552;9.910;2022-11-25T03:10:31;4.30;99.90
21712;DHT22;11017;53.552;9.910;2022-11-25T03:12:58;4.20;99.90
21712;DHT22;11017;53.552;9.910;2022-11-25T03:15:24;4.20;99.90
21712;DHT22;11017;53.552;9.910;2022-11-25T03:17:52;4.10;99.90
21712;DHT22;11017;53.552;9.910;2022-11-25T03:20:19;4.20;99.90
21712;DHT22;11017;53.552;9.910;2022-11-25T03:22:47;4.20;99.90
21712;DHT22;11017;53.552;9.910;2022-11-25T03:25:14;4.20;99.90
21712;DHT22;11017;53.552;9.910;2022-11-25T03:27:42;4.20;99.90
21712;DHT22;11017;53.552;9.910;2022-11-25T03:30:12;4.20;99.90
21712;DHT22;11017;53.552;9.910;2022-11-25T03:32:39;4.30;99.90
21712;DHT22;11017;53.552;9.910;2022-11-25T03:35:09;4.30;99.90
21712;DHT22;11017;53.552;9.910;2022-11-25T03:37:36;4.40;99.90
21712;DHT22;11017;53.552;9.910;2022-11-25T03:40:05;4.40;99.90
21712;DHT22;11017;53.552;9.910;2022-11-25T03:42:33;4.40;99.90
21712;DHT22;11017;53.552;9.910;2022-11-25T03:45:00;4.40;99.90
21712;DHT22;11017;53.552;9.910;2022-11-25T03:47:27;4.70;99.90
21712;DHT22;11017;53.552;9.910;2022-11-25T03:49:54;4.60;99.90
21712;DHT22;11017;53.552;9.910;2022-11-25T03:52:23;4.50;99.90
21712;DHT22;11017;53.552;9.910;2022-11-25T03:54:50;4.60;99.90
21712;DHT22;11017;53.552;9.910;2022-11-25T03:57:17;4.60;99.90
21712;DHT22;11017;53.552;9.910;2022-11-25T03:59:44;4.60;99.90
21712;DHT22;11017;53.552;9.910;2022-11-25T04:02:10;4.50;99.90
21712;DHT22;11017;53.552;9.910;2022-11-25T04:04:38;4.50;99.90
21712;DHT22;11017;53.552;9.910;2022-11-25T04:07:05;4.50;99.90
21712;DHT22;11017;53.552;9.910;2022-11-25T04:09:34;4.70;99.90
21712;DHT22;11017;53.552;9.910;2022-11-25T04:12:01;4.60;99.90
21712;DHT22;11017;53.552;9.910;2022-11-25T04:14:45;4.50;99.90
21712;DHT22;11017;53.552;9.910;2022-11-25T04:17:12;4.50;99.90
21712;DHT22;11017;53.552;9.910;2022-11-25T04:19:39;4.40;99.90
21712;DHT22;11017;53.552;9.910;2022-11-25T04:22:06;4.40;99.90
21712;DHT22;11017;53.552;9.910;2022-11-25T04:24:34;4.30;99.90
21712;DHT22;11017;53.552;9.910;2022-11-25T04:27:01;4.40;99.90
21712;DHT22;11017;53.552;9.910;2022-11-25T04:29:28;4.40;99.90
21712;DHT22;11017;53.552;9.910;2022-11-25T04:31:55;4.40;99.90
21712;DHT22;11017;53.552;9.910;2022-11-25T04:34:22;4.50;99.90
21712;DHT22;11017;53.552;9.910;2022-11-25T04:36:49;4.50;99.90
21712;DHT22;11017;53.552;9.910;2022-11-25T04:39:16;4.60;99.90
21712;DHT22;11017;53.552;9.910;2022-11-25T04:41:45;4.50;99.90
21712;DHT22;11017;53.552;9.910;2022-11-25T04:44:12;4.50;99.90
21712;DHT22;11017;53.552;9.910;2022-11-25T04:46:40;4.40;99.90
21712;DHT22;11017;53.552;9.910;2022-11-25T04:49:08;4.50;99.90
21712;DHT22;11017;53.552;9.910;2022-11-25T04:51:35;4.50;99.90
21712;DHT22;11017;53.552;9.910;2022-11-25T04:54:02;4.50;99.90
21712;DHT22;11017;53.552;9.910;2022-11-25T04:56:29;4.40;99.90
21712;DHT22;11017;53.552;9.910;2022-11-25T04:58:57;4.40;99.90
21712;DHT22;11017;53.552;9.910;2022-11-25T05:01:41;4.50;99.90
21712;DHT22;11017;53.552;9.910;2022-11-25T05:04:08;4.40;99.90
21712;DHT22;11017;53.552;9.910;2022-11-25T05:06:35;4.40;99.90
21712;DHT22;11017;53.552;9.910;2022-11-25T05:09:03;4.40;99.90
21712;DHT22;11017;53.552;9.910;2022-11-25T05:11:30;4.40;99.90
21712;DHT22;11017;53.552;9.910;2022-11-25T05:13:58;4.40;99.90
21712;DHT22;11017;53.552;9.910;2022-11-25T05:16:25;4.40;99.90
21712;DHT22;11017;53.552;9.910;2022-11-25T05:18:54;4.50;99.90
21712;DHT22;11017;53.552;9.910;2022-11-25T05:21:21;4.50;99.90
21712;DHT22;11017;53.552;9.910;2022-11-25T05:23:48;4.40;99.90
21712;DHT22;11017;53.552;9.910;2022-11-25T05:26:15;4.40;99.90
21712;DHT22;11017;53.552;9.910;2022-11-25T05:28:41;4.50;99.90
21712;DHT22;11017;53.552;9.910;2022-11-25T05:31:10;4.50;99.90
21712;DHT22;11017;53.552;9.910;2022-11-25T05:33:37;4.50;99.90
21712;DHT22;11017;53.552;9.910;2022-11-25T05:36:04;4.40;99.90
21712;DHT22;11017;53.552;9.910;2022-11-25T05:38:31;4.50;99.90
21712;DHT22;11017;53.552;9.910;2022-11-25T05:41:02;4.60;99.90
21712;DHT22;11017;53.552;9.910;2022-11-25T05:43:29;4.60;99.90
21712;DHT22;11017;53.552;9.910;2022-11-25T05:45:56;4.70;99.90
21712;DHT22;11017;53.552;9.910;2022-11-25T05:48:24;4.80;99.90
21712;DHT22;11017;53.552;9.910;2022-11-25T05:50:51;4.80;99.90
21712;DHT22;11017;53.552;9.910;2022-11-25T05:53:18;4.80;99.90
21712;DHT22;11017;53.552;9.910;2022-11-25T05:55:52;4.80;99.90
21712;DHT22;11017;53.552;9.910;2022-11-25T05:58:19;4.80;99.90
21712;DHT22;11017;53.552;9.910;2022-11-25T06:00:46;4.90;99.90
21712;DHT22;11017;53.552;9.910;2022-11-25T06:03:13;4.90;99.90
21712;DHT22;11017;53.552;9.910;2022-11-25T06:05:41;4.90;99.90
21712;DHT22;11017;53.552;9.910;2022-11-25T06:08:09;5.00;99.90
21712;DHT22;11017;53.552;9.910;2022-11-25T06:10:37;4.90;99.90
21712;DHT22;11017;53.552;9.910;2022-11-25T06:13:04;4.80;99.90
21712;DHT22;11017;53.552;9.910;2022-11-25T06:15:31;4.90;99.90
21712;DHT22;11017;53.552;9.910;2022-11-25T06:17:58;4.90;99.90
21712;DHT22;11017;53.552;9.910;2022-11-25T06:20:25;4.80;99.90
21712;DHT22;11017;53.552;9.910;2022-11-25T06:22:54;4.90;99.90
21712;DHT22;11017;53.552;9.910;2022-11-25T06:25:20;4.80;99.90
21712;DHT22;11017;53.552;9.910;2022-11-25T06:27:47;4.80;99.90
21712;DHT22;11017;53.552;9.910;2022-11-25T06:30:15;4.80;99.90
21712;DHT22;11017;53.552;9.910;2022-11-25T06:32:42;4.80;99.90
21712;DHT22;11017;53.552;9.910;2022-11-25T06:35:09;4.80;99.90
21712;DHT22;11017;53.552;9.910;2022-11-25T06:37:36;4.80;99.90
21712;DHT22;11017;53.552;9.910;2022-11-25T06:40:05;4.70;99.90
21712;DHT22;11017;53.552;9.910;2022-11-25T06:42:32;4.60;99.90
21712;DHT22;11017;53.552;9.910;2022-11-25T06:44:59;4.70;99.90
21712;DHT22;11017;53.552;9.910;2022-11-25T06:47:26;4.80;99.90
21712;DHT22;11017;53.552;9.910;2022-11-25T06:49:53;4.80;99.90
21712;DHT22;11017;53.552;9.910;2022-11-25T06:52:20;4.80;99.90
21712;DHT22;11017;53.552;9.910;2022-11-25T06:54:49;4.90;99.90
21712;DHT22;11017;53.552;9.910;2022-11-25T06:57:18;5.00;99.90
21712;DHT22;11017;53.552;9.910;2022-11-25T06:59:45;5.00;99.90
21712;DHT22;11017;53.552;9.910;2022-11-25T07:02:12;5.00;99.90
21712;DHT22;11017;53.552;9.910;2022-11-25T07:04:39;5.00;99.90
21712;DHT22;11017;53.552;9.910;2022-11-25T07:07:06;5.00;99.90
21712;DHT22;11017;53.552;9.910;2022-11-25T07:09:33;4.80;99.90
21712;DHT22;11017;53.552;9.910;2022-11-25T07:12:01;5.00;99.90
21712;DHT22;11017;53.552;9.910;2022-11-25T07:14:29;5.10;99.90
21712;DHT22;11017;53.552;9.910;2022-11-25T07:16:56;5.20;99.90
21712;DHT22;11017;53.552;9.910;2022-11-25T07:19:23;5.10;99.90
21712;DHT22;11017;53.552;9.910;2022-11-25T07:21:50;5.10;99.90
21712;DHT22;11017;53.552;9.910;2022-11-25T07:24:17;5.20;99.90
21712;DHT22;11017;53.552;9.910;2022-11-25T07:26:44;5.10;99.90
21712;DHT22;11017;53.552;9.910;2022-11-25T07:29:15;5.20;99.90
21712;DHT22;11017;53.552;9.910;2022-11-25T07:31:44;5.20;99.90
21712;DHT22;11017;53.552;9.910;2022-11-25T07:34:13;5.30;99.90
21712;DHT22;11017;53.552;9.910;2022-11-25T07:36:42;5.20;99.90
21712;DHT22;11017;53.552;9.910;2022-11-25T07:39:12;5.10;99.90
21712;DHT22;11017;53.552;9.910;2022-11-25T07:41:39;5.10;99.90
21712;DHT22;11017;53.552;9.910;2022-11-25T07:44:08;5.10;99.90
21712;DHT22;11017;53.552;9.910;2022-11-25T07:46:40;5.20;99.90
21712;DHT22;11017;53.552;9.910;2022-11-25T07:49:14;5.20;99.90
21712;DHT22;11017;53.552;9.910;2022-11-25T07:51:46;5.30;99.90
21712;DHT22;11017;53.552;9.910;2022-11-25T07:54:13;5.30;99.90
21712;DHT22;11017;53.552;9.910;2022-11-25T07:56:41;5.40;99.90
21712;DHT22;11017;53.552;9.910;2022-11-25T07:59:12;5.50;99.90
21712;DHT22;11017;53.552;9.910;2022-11-25T08:01:39;5.60;99.90
21712;DHT22;11017;53.552;9.910;2022-11-25T08:04:07;5.70;99.90
21712;DHT22;11017;53.552;9.910;2022-11-25T08:06:38;5.50;99.90
21712;DHT22;11017;53.552;9.910;2022-11-25T08:09:07;5.10;99.90
21712;DHT22;11017;53.552;9.910;2022-11-25T08:11:36;5.60;99.90
21712;DHT22;11017;53.552;9.910;2022-11-25T08:14:04;5.60;99.90
21712;DHT22;11017;53.552;9.910;2022-11-25T08:16:31;5.50;99.90
21712;DHT22;11017;53.552;9.910;2022-11-25T08:19:00;5.50;99.90
21712;DHT22;11017;53.552;9.910;2022-11-25T08:21:28;5.50;99.90
21712;DHT22;11017;53.552;9.910;2022-11-25T08:23:56;5.60;99.90
21712;DHT22;11017;53.552;9.910;2022-11-25T08:26:26;5.60;99.90
21712;DHT22;11017;53.552;9.910;2022-11-25T08:28:55;5.60;99.90
21712;DHT22;11017;53.552;9.910;2022-11-25T08:31:25;5.70;99.90
21712;DHT22;11017;53.552;9.910;2022-11-25T08:33:53;5.70;99.90
21712;DHT22;11017;53.552;9.910;2022-11-25T08:36:22;5.80;99.90
21712;DHT22;11017;53.552;9.910;2022-11-25T08:38:51;5.90;99.90
21712;DHT22;11017;53.552;9.910;2022-11-25T08:41:22;6.00;99.90
21712;DHT22;11017;53.552;9.910;2022-11-25T08:43:49;6.10;99.90
21712;DHT22;11017;53.552;9.910;2022-11-25T08:46:18;5.90;99.90
21712;DHT22;11017;53.552;9.910;2022-11-25T08:48:45;5.80;99.90
21712;DHT22;11017;53.552;9.910;2022-11-25T08:51:17;5.80;99.90
21712;DHT22;11017;53.552;9.910;2022-11-25T08:53:45;5.80;99.90
21712;DHT22;11017;53.552;9.910;2022-11-25T08:56:13;5.90;99.90
21712;DHT22;11017;53.552;9.910;2022-11-25T08:58:41;6.00;99.90
21712;DHT22;11017;53.552;9.910;2022-11-25T09:01:09;6.00;99.90
21712;DHT22;11017;53.552;9.910;2022-11-25T09:03:38;5.90;99.90
21712;DHT22;11017;53.552;9.910;2022-11-25T09:06:07;5.80;99.90
21712;DHT22;11017;53.552;9.910;2022-11-25T09:08:35;5.80;99.90
21712;DHT22;11017;53.552;9.910;2022-11-25T09:11:04;5.80;99.90
21712;DHT22;11017;53.552;9.910;2022-11-25T09:13:30;5.70;99.90
21712;DHT22;11017;53.552;9.910;2022-11-25T09:15:59;5.70;99.90
21712;DHT22;11017;53.552;9.910;2022-11-25T09:18:27;5.70;99.90
21712;DHT22;11017;53.552;9.910;2022-11-25T09:20:55;5.70;99.90
21712;DHT22;11017;53.552;9.910;2022-11-25T09:23:23;5.80;99.90
21712;DHT22;11017;53.552;9.910;2022-11-25T09:25:50;5.80;99.90
21712;DHT22;11017;53.552;9.910;2022-11-25T09:28:18;5.80;99.90
21712;DHT22;11017;53.552;9.910;2022-11-25T09:30:45;5.80;99.90
21712;DHT22;11017;53.552;9.910;2022-11-25T09:33:13;5.80;99.90
21712;DHT22;11017;53.552;9.910;2022-11-25T09:35:40;5.80;99.90
21712;DHT22;11017;53.552;9.910;2022-11-25T09:38:07;5.80;99.90
21712;DHT22;11017;53.552;9.910;2022-11-25T09:40:38;5.80;99.90
21712;DHT22;11017;53.552;9.910;2022-11-25T09:43:19;5.70;99.90
21712;DHT22;11017;53.552;9.910;2022-11-25T09:46:16;5.70;99.90
21712;DHT22;11017;53.552;9.910;2022-11-25T09:49:07;5.70;99.90
21712;DHT22;11017;53.552;9.910;2022-11-25T09:51:45;5.90;99.90
21712;DHT22;11017;53.552;9.910;2022-11-25T09:54:20;5.90;99.90
21712;DHT22;11017;53.552;9.910;2022-11-25T09:56:52;5.90;99.90
21712;DHT22;11017;53.552;9.910;2022-11-25T09:59:26;5.90;99.90
21712;DHT22;11017;53.552;9.910;2022-11-25T10:02:00;5.90;99.90
21712;DHT22;11017;53.552;9.910;2022-11-25T10:04:32;6.00;99.90
21712;DHT22;11017;53.552;9.910;2022-11-25T10:07:02;5.90;99.90
21712;DHT22;11017;53.552;9.910;2022-11-25T10:09:32;5.90;99.90
21712;DHT22;11017;53.552;9.910;2022-11-25T10:12:03;5.90;99.90
21712;DHT22;11017;53.552;9.910;2022-11-25T10:14:34;5.90;99.90
21712;DHT22;11017;53.552;9.910;2022-11-25T10:17:10;5.90;99.90
21712;DHT22;11017;53.552;9.910;2022-11-25T10:19:53;5.90;99.90
21712;DHT22;11017;53.552;9.910;2022-11-25T10:22:25;6.00;99.90
21712;DHT22;11017;53.552;9.910;2022-11-25T10:24:56;6.30;99.90
21712;DHT22;11017;53.552;9.910;2022-11-25T10:27:39;6.30;99.90
21712;DHT22;11017;53.552;9.910;2022-11-25T10:30:16;6.40;99.90
21712;DHT22;11017;53.552;9.910;2022-11-25T10:32:48;6.40;99.90
21712;DHT22;11017;53.552;9.910;2022-11-25T10:35:25;6.40;99.90
21712;DHT22;11017;53.552;9.910;2022-11-25T10:37:55;6.40;99.90
21712;DHT22;11017;53.552;9.910;2022-11-25T10:40:24;6.40;99.90
21712;DHT22;11017;53.552;9.910;2022-11-25T10:42:51;6.30;99.90
21712;DHT22;11017;53.552;9.910;2022-11-25T10:45:21;6.30;99.90
21712;DHT22;11017;53.552;9.910;2022-11-25T10:48:02;6.30;99.90
21712;DHT22;11017;53.552;9.910;2022-11-25T10:50:40;6.30;99.90
21712;DHT22;11017;53.552;9.910;2022-11-25T10:53:16;6.30;99.90
21712;DHT22;11017;53.552;9.910;2022-11-25T10:55:58;6.40;99.90
21712;DHT22;11017;53.552;9.910;2022-11-25T10:58:28;6.40;99.90
21712;DHT22;11017;53.552;9.910;2022-11-25T11:01:04;6.40;99.90
21712;DHT22;11017;53.552;9.910;2022-11-25T11:03:32;6.40;99.90
21712;DHT22;11017;53.552;9.910;2022-11-25T11:06:00;6.40;99.90
21712;DHT22;11017;53.552;9.910;2022-11-25T11:08:36;6.50;99.90
21712;DHT22;11017;53.552;9.910;2022-11-25T11:11:14;6.50;99.90
21712;DHT22;11017;53.552;9.910;2022-11-25T11:13:42;6.50;99.90
21712;DHT22;11017;53.552;9.910;2022-11-25T11:16:24;6.60;99.90
21712;DHT22;11017;53.552;9.910;2022-11-25T11:18:51;6.60;99.90
21712;DHT22;11017;53.552;9.910;2022-11-25T11:21:27;6.60;99.90
21712;DHT22;11017;53.552;9.910;2022-11-25T11:23:55;6.70;99.90
21712;DHT22;11017;53.552;9.910;2022-11-25T11:26:23;6.70;99.90
21712;DHT22;11017;53.552;9.910;2022-11-25T11:28:59;6.70;99.90
21712;DHT22;11017;53.552;9.910;2022-11-25T11:31:30;6.70;99.90
21712;DHT22;11017;53.552;9.910;2022-11-25T11:34:05;6.80;99.90
21712;DHT22;11017;53.552;9.910;2022-11-25T11:36:47;6.70;99.90
21712;DHT22;11017;53.552;9.910;2022-11-25T11:39:33;6.70;99.90
21712;DHT22;11017;53.552;9.910;2022-11-25T11:42:11;6.70;99.90
21712;DHT22;11017;53.552;9.910;2022-11-25T11:44:51;6.90;99.90
21712;DHT22;11017;53.552;9.910;2022-11-25T11:47:24;6.80;99.90
21712;DHT22;11017;53.552;9.910;2022-11-25T11:50:15;6.80;99.90
21712;DHT22;11017;53.552;9.910;2022-11-25T11:52:53;6.90;99.90
21712;DHT22;11017;53.552;9.910;2022-11-25T11:55:36;7.00;99.90
21712;DHT22;11017;53.552;9.910;2022-11-25T11:58:12;6.90;99.90
21712;DHT22;11017;53.552;9.910;2022-11-25T12:00:46;7.00;99.90
21712;DHT22;11017;53.552;9.910;2022-11-25T12:03:19;7.10;99.90
21712;DHT22;11017;53.552;9.910;2022-11-25T12:05:48;7.20;99.90
21712;DHT22;11017;53.552;9.910;2022-11-25T12:08:26;7.20;99.90
21712;DHT22;11017;53.552;9.910;2022-11-25T12:10:57;7.20;99.90
21712;DHT22;11017;53.552;9.910;2022-11-25T12:13:32;7.20;99.90
21712;DHT22;11017;53.552;9.910;2022-11-25T12:16:04;7.20;99.90
21712;DHT22;11017;53.552;9.910;2022-11-25T12:18:40;7.10;99.90
21712;DHT22;11017;53.552;9.910;2022-11-25T12:21:16;7.20;99.90
21712;DHT22;11017;53.552;9.910;2022-11-25T12:23:54;7.20;99.90
21712;DHT22;11017;53.552;9.910;2022-11-25T12:26:27;7.30;99.90
21712;DHT22;11017;53.552;9.910;2022-11-25T12:28:59;7.30;99.90
21712;DHT22;11017;53.552;9.910;2022-11-25T12:31:31;7.50;99.90
21712;DHT22;11017;53.552;9.910;2022-11-25T12:34:06;7.50;99.90
21712;DHT22;11017;53.552;9.910;2022-11-25T12:36:36;7.70;99.90
21712;DHT22;11017;53.552;9.910;2022-11-25T12:39:14;7.60;99.90
21712;DHT22;11017;53.552;9.910;2022-11-25T12:41:48;7.80;99.90
21712;DHT22;11017;53.552;9.910;2022-11-25T12:44:20;7.80;99.90
21712;DHT22;11017;53.552;9.910;2022-11-25T12:46:48;7.90;99.90
21712;DHT22;11017;53.552;9.910;2022-11-25T12:49:18;7.90;99.90
21712;DHT22;11017;53.552;9.910;2022-11-25T12:52:24;7.90;99.90
21712;DHT22;11017;53.552;9.910;2022-11-25T12:55:15;7.70;99.90
21712;DHT22;11017;53.552;9.910;2022-11-25T12:58:23;7.60;99.90
21712;DHT22;11017;53.552;9.910;2022-11-25T13:04:22;7.60;99.90
21712;DHT22;11017;53.552;9.910;2022-11-25T13:07:07;7.60;99.90
21712;DHT22;11017;53.552;9.910;2022-11-25T13:12:45;7.60;99.90
21712;DHT22;11017;53.552;9.910;2022-11-25T13:15:24;7.60;99.90
21712;DHT22;11017;53.552;9.910;2022-11-25T13:17:55;7.70;99.90
21712;DHT22;11017;53.552;9.910;2022-11-25T13:23:25;7.80;99.90
21712;DHT22;11017;53.552;9.910;2022-11-25T13:26:32;7.80;99.90
21712;DHT22;11017;53.552;9.910;2022-11-25T13:28:41;7.90;99.90
21712;DHT22;11017;53.552;9.910;2022-11-25T13:31:19;7.90;99.90
21712;DHT22;11017;53.552;9.910;2022-11-25T13:34:06;8.00;99.90
21712;DHT22;11017;53.552;9.910;2022-11-25T13:36:45;8.00;99.90
21712;DHT22;11017;53.552;9.910;2022-11-25T13:39:16;8.00;99.90
21712;DHT22;11017;53.552;9.910;2022-11-25T13:41:49;8.00;99.90
21712;DHT22;11017;53.552;9.910;2022-11-25T13:44:27;8.10;99.90
21712;DHT22;11017;53.552;9.910;2022-11-25T13:46:58;8.10;99.90
21712;DHT22;11017;53.552;9.910;2022-11-25T13:49:31;8.30;99.90
21712;DHT22;11017;53.552;9.910;2022-11-25T13:52:02;8.50;99.90
21712;DHT22;11017;53.552;9.910;2022-11-25T13:54:35;8.70;99.90
21712;DHT22;11017;53.552;9.910;2022-11-25T13:57:18;8.80;99.90
21712;DHT22;11017;53.552;9.910;2022-11-25T13:59:52;9.00;99.90
21712;DHT22;11017;53.552;9.910;2022-11-25T14:02:30;9.00;99.90
21712;DHT22;11017;53.552;9.910;2022-11-25T14:05:07;9.10;99.90
21712;DHT22;11017;53.552;9.910;2022-11-25T14:07:43;9.10;99.90
21712;DHT22;11017;53.552;9.910;2022-11-25T14:10:32;9.10;99.90
21712;DHT22;11017;53.552;9.910;2022-11-25T14:13:31;9.10;99.90
21712;DHT22;11017;53.552;9.910;2022-11-25T14:16:15;9.10;99.90
21712;DHT22;11017;53.552;9.910;2022-11-25T14:18:58;9.00;99.90
21712;DHT22;11017;53.552;9.910;2022-11-25T14:21:43;8.90;99.90
21712;DHT22;11017;53.552;9.910;2022-11-25T14:24:29;9.00;99.90
21712;DHT22;11017;53.552;9.910;2022-11-25T14:27:00;9.10;99.90
21712;DHT22;11017;53.552;9.910;2022-11-25T14:29:32;9.10;99.90
21712;DHT22;11017;53.552;9.910;2022-11-25T14:32:06;9.10;99.90
21712;DHT22;11017;53.552;9.910;2022-11-25T14:34:37;9.10;99.90
21712;DHT22;11017;53.552;9.910;2022-11-25T14:37:10;9.00;99.90
21712;DHT22;11017;53.552;9.910;2022-11-25T14:39:43;9.00;99.90
21712;DHT22;11017;53.552;9.910;2022-11-25T14:42:14;9.10;99.90
21712;DHT22;11017;53.552;9.910;2022-11-25T14:44:46;9.10;99.90
21712;DHT22;11017;53.552;9.910;2022-11-25T14:47:20;9.10;99.90
21712;DHT22;11017;53.552;9.910;2022-11-25T14:49:48;9.10;99.90
21712;DHT22;11017;53.552;9.910;2022-11-25T14:52:20;9.10;99.90
21712;DHT22;11017;53.552;9.910;2022-11-25T14:54:47;9.20;99.90
21712;DHT22;11017;53.552;9.910;2022-11-25T14:57:18;9.20;99.90
21712;DHT22;11017;53.552;9.910;2022-11-25T14:59:47;9.20;99.90
21712;DHT22;11017;53.552;9.910;2022-11-25T15:02:27;9.20;99.90
21712;DHT22;11017;53.552;9.910;2022-11-25T15:05:00;9.20;99.90
21712;DHT22;11017;53.552;9.910;2022-11-25T15:07:28;9.20;99.90
21712;DHT22;11017;53.552;9.910;2022-11-25T15:09:55;9.20;99.90
21712;DHT22;11017;53.552;9.910;2022-11-25T15:12:24;9.30;99.90
21712;DHT22;11017;53.552;9.910;2022-11-25T15:14:54;9.30;99.90
21712;DHT22;11017;53.552;9.910;2022-11-25T15:17:26;9.30;99.90
21712;DHT22;11017;53.552;9.910;2022-11-25T15:19:55;9.40;99.90
21712;DHT22;11017;53.552;9.910;2022-11-25T15:22:23;9.30;99.90
21712;DHT22;11017;53.552;9.910;2022-11-25T15:24:51;9.30;99.90
21712;DHT22;11017;53.552;9.910;2022-11-25T15:27:21;9.40;99.90
21712;DHT22;11017;53.552;9.910;2022-11-25T15:29:50;9.40;99.90
21712;DHT22;11017;53.552;9.910;2022-11-25T15:32:19;9.40;99.90
21712;DHT22;11017;53.552;9.910;2022-11-25T15:34:49;9.30;99.90
21712;DHT22;11017;53.552;9.910;2022-11-25T15:37:17;9.40;99.90
21712;DHT22;11017;53.552;9.910;2022-11-25T15:39:44;9.40;99.90
21712;DHT22;11017;53.552;9.910;2022-11-25T15:42:16;9.40;99.90
21712;DHT22;11017;53.552;9.910;2022-11-25T15:44:47;9.40;99.90
21712;DHT22;11017;53.552;9.910;2022-11-25T15:47:20;9.40;99.90
21712;DHT22;11017;53.552;9.910;2022-11-25T15:49:56;9.40;99.90
21712;DHT22;11017;53.552;9.910;2022-11-25T15:52:26;9.40;99.90
21712;DHT22;11017;53.552;9.910;2022-11-25T15:54:58;9.40;99.90
21712;DHT22;11017;53.552;9.910;2022-11-25T15:57:30;9.50;99.90
21712;DHT22;11017;53.552;9.910;2022-11-25T16:00:15;9.50;99.90
21712;DHT22;11017;53.552;9.910;2022-11-25T16:02:53;9.50;99.90
21712;DHT22;11017;53.552;9.910;2022-11-25T16:05:50;9.40;99.90
21712;DHT22;11017;53.552;9.910;2022-11-25T16:08:35;9.40;99.90
21712;DHT22;11017;53.552;9.910;2022-11-25T16:11:13;9.40;99.90
21712;DHT22;11017;53.552;9.910;2022-11-25T16:13:43;9.30;99.90
21712;DHT22;11017;53.552;9.910;2022-11-25T16:16:16;9.30;99.90
21712;DHT22;11017;53.552;9.910;2022-11-25T16:19:05;9.40;99.90